Terminal Aerodrome Forecast
Issued by NWS

Home | Current Version | Previous Version | Text Only | Print | Product List | Glossary On
Versions: 1 2 3 4 5 6 7 8 9 10 11 12
000
FTUS46 KSGX 310520
TAFONT
TAF
KONT 310520Z 3106/0112 VRB04KT P6SM SCT250
     FM311300 VRB04KT 5SM HZ SCT006 SCT250
     FM311700 VRB04KT P6SM SCT250
     FM312100 25010G18KT P6SM SKC
     FM010400 VRB04KT P6SM SKC
     FM010900 VRB04KT P6SM OVC012=

USA.gov is the U.S. government's official web portal to all federal, state and local government web resources and services.